createdAt,value
2018-06-24T00:00:58.679Z,22.60
2018-06-24T00:03:26.776Z,22.60
2018-06-24T00:05:54.837Z,22.60
2018-06-24T00:08:23.215Z,22.60
2018-06-24T00:10:51.348Z,22.60
2018-06-24T00:13:19.425Z,22.60
2018-06-24T00:15:47.525Z,22.60
2018-06-24T00:18:15.584Z,22.60
2018-06-24T00:20:43.676Z,22.60
2018-06-24T00:23:11.767Z,22.60
2018-06-24T00:25:39.836Z,22.60
2018-06-24T00:28:07.929Z,22.60
2018-06-24T00:30:36.077Z,22.60
2018-06-24T00:33:04.160Z,22.60
2018-06-24T00:35:32.248Z,22.60
2018-06-24T00:38:00.308Z,22.60
2018-06-24T00:42:56.300Z,22.60
2018-06-24T00:45:24.364Z,22.60
2018-06-24T00:47:52.428Z,22.60
2018-06-24T00:50:20.508Z,22.60
2018-06-24T00:52:48.572Z,22.60
2018-06-24T00:55:16.627Z,22.60
2018-06-24T00:57:44.699Z,22.60
2018-06-24T01:00:15.124Z,22.60
2018-06-24T01:02:43.204Z,22.60
2018-06-24T01:05:12.468Z,22.60
2018-06-24T01:07:41.064Z,22.60
2018-06-24T01:10:09.174Z,22.60
2018-06-24T01:12:37.277Z,22.60
2018-06-24T01:15:05.388Z,22.60
2018-06-24T01:17:33.476Z,22.60
2018-06-24T01:20:03.024Z,22.50
2018-06-24T01:22:31.117Z,22.50
2018-06-24T01:24:59.169Z,22.50
2018-06-24T01:27:27.220Z,22.50
2018-06-24T01:29:55.268Z,22.50
2018-06-24T01:32:24.096Z,22.50
2018-06-24T01:34:52.769Z,22.50
2018-06-24T01:37:20.928Z,22.50
2018-06-24T01:39:49.002Z,22.50
2018-06-24T01:42:17.096Z,22.50
2018-06-24T01:44:45.147Z,22.50
2018-06-24T01:47:13.237Z,22.40
2018-06-24T01:49:41.437Z,22.50
2018-06-24T01:52:09.693Z,22.50
2018-06-24T01:54:37.911Z,22.50
2018-06-24T01:57:06.122Z,22.50
2018-06-24T01:59:34.292Z,22.40
2018-06-24T02:02:02.399Z,22.50
2018-06-24T02:04:30.980Z,22.50
2018-06-24T02:06:59.053Z,22.40
2018-06-24T02:09:27.152Z,22.40
2018-06-24T02:11:55.214Z,22.40
2018-06-24T02:14:23.263Z,22.40
2018-06-24T02:16:51.388Z,22.40
2018-06-24T02:19:19.664Z,22.40
2018-06-24T02:21:47.732Z,22.40
2018-06-24T02:24:15.851Z,22.40
2018-06-24T02:26:44.005Z,22.40
2018-06-24T02:29:12.044Z,22.40
2018-06-24T02:31:40.125Z,22.40
2018-06-24T02:34:08.228Z,22.40
2018-06-24T02:36:36.412Z,22.40
2018-06-24T02:39:07.219Z,22.40
2018-06-24T02:41:35.449Z,22.40
2018-06-24T02:44:03.669Z,22.40
2018-06-24T02:46:31.842Z,22.40
2018-06-24T02:49:00.047Z,22.40
2018-06-24T02:51:28.156Z,22.40
2018-06-24T02:53:56.205Z,22.40
2018-06-24T02:56:24.269Z,22.40
2018-06-24T02:58:52.349Z,22.30
2018-06-24T03:01:20.395Z,22.30
2018-06-24T03:03:48.574Z,22.30
2018-06-24T03:06:16.616Z,22.30
2018-06-24T03:08:44.687Z,22.30
2018-06-24T03:11:12.756Z,22.30
2018-06-24T03:13:40.817Z,22.30
2018-06-24T03:16:08.904Z,22.30
2018-06-24T03:18:36.976Z,22.30
2018-06-24T03:21:05.378Z,22.30
2018-06-24T03:23:33.462Z,22.30
2018-06-24T03:26:01.548Z,22.30
2018-06-24T03:28:29.608Z,22.30
2018-06-24T03:30:57.656Z,22.40
2018-06-24T03:33:25.737Z,22.30
2018-06-24T03:35:53.804Z,22.40
2018-06-24T03:38:22.010Z,22.40
2018-06-24T03:40:50.061Z,22.30
2018-06-24T03:43:18.151Z,22.40
2018-06-24T03:45:46.212Z,22.30
2018-06-24T03:48:14.398Z,22.30
2018-06-24T03:50:42.556Z,22.30
2018-06-24T03:53:10.625Z,22.30
2018-06-24T03:55:38.679Z,22.40
2018-06-24T03:58:06.776Z,22.30
2018-06-24T04:00:34.848Z,22.30
2018-06-24T04:03:02.916Z,22.30
2018-06-24T04:05:30.972Z,22.30
2018-06-24T04:10:26.994Z,22.30
2018-06-24T04:12:55.113Z,22.30
2018-06-24T04:15:23.177Z,22.30
2018-06-24T04:17:51.348Z,22.30
2018-06-24T04:20:19.449Z,22.30
2018-06-24T04:22:47.524Z,22.30
2018-06-24T04:25:15.592Z,22.30
2018-06-24T04:27:43.668Z,22.30
2018-06-24T04:30:11.790Z,22.30
2018-06-24T04:32:39.863Z,22.40
2018-06-24T04:35:07.946Z,22.40
2018-06-24T04:37:36.142Z,22.40
2018-06-24T04:40:04.237Z,22.40
2018-06-24T04:42:32.388Z,22.30
2018-06-24T04:45:00.461Z,22.30
2018-06-24T04:47:28.510Z,22.30
2018-06-24T04:49:56.561Z,22.30
2018-06-24T04:52:24.620Z,22.30
2018-06-24T04:54:52.680Z,22.30
2018-06-24T04:57:20.800Z,22.30
2018-06-24T04:59:48.893Z,22.30
2018-06-24T05:02:16.945Z,22.30
2018-06-24T05:04:45.056Z,22.30
2018-06-24T05:07:13.135Z,22.30
2018-06-24T05:09:41.186Z,22.30
2018-06-24T05:12:09.317Z,22.30
2018-06-24T05:14:37.437Z,22.30
2018-06-24T05:17:05.596Z,22.30
2018-06-24T05:19:33.665Z,22.20
2018-06-24T05:22:01.773Z,22.30
2018-06-24T05:24:30.170Z,22.30
2018-06-24T05:26:58.228Z,22.30
2018-06-24T05:29:26.289Z,22.20
2018-06-24T05:31:54.368Z,22.20
2018-06-24T05:34:22.425Z,22.20
2018-06-24T05:36:50.560Z,22.20
2018-06-24T05:39:18.640Z,22.20
2018-06-24T05:41:46.737Z,22.20
2018-06-24T05:44:14.796Z,22.30
2018-06-24T05:46:42.900Z,22.20
2018-06-24T05:49:11.007Z,22.20
2018-06-24T05:51:39.165Z,22.20
2018-06-24T05:54:07.312Z,22.20
2018-06-24T05:56:35.414Z,22.20
2018-06-24T05:59:03.558Z,22.20
2018-06-24T06:01:31.709Z,22.20
2018-06-24T06:03:59.768Z,22.20
2018-06-24T06:06:27.845Z,22.20
2018-06-24T06:08:55.942Z,22.20
2018-06-24T06:11:24.115Z,22.20
2018-06-24T06:13:52.273Z,22.20
2018-06-24T06:16:20.378Z,22.20
2018-06-24T06:18:48.435Z,22.20
2018-06-24T06:21:16.504Z,22.20
2018-06-24T06:23:44.784Z,22.20
2018-06-24T06:26:12.975Z,22.20
2018-06-24T06:28:41.034Z,22.20
2018-06-24T06:31:09.105Z,22.20
2018-06-24T06:33:37.275Z,22.20
2018-06-24T06:36:05.453Z,22.30
2018-06-24T06:41:13.375Z,22.30
2018-06-24T06:43:41.572Z,22.30
2018-06-24T06:46:12.372Z,22.30
2018-06-24T06:48:40.659Z,22.30
2018-06-24T06:51:10.248Z,22.30
2018-06-24T06:53:38.462Z,22.30
2018-06-24T06:56:07.168Z,22.30
2018-06-24T06:58:35.433Z,22.30
2018-06-24T07:01:03.719Z,22.30
2018-06-24T07:06:00.230Z,22.30
2018-06-24T07:08:28.339Z,22.30
2018-06-24T07:10:56.460Z,22.30
2018-06-24T07:13:24.650Z,22.30
2018-06-24T07:15:52.820Z,22.20
2018-06-24T07:18:20.926Z,22.20
2018-06-24T07:20:49.062Z,22.20
2018-06-24T07:23:17.280Z,22.30
2018-06-24T07:25:46.068Z,22.20
2018-06-24T07:28:14.496Z,22.20
2018-06-24T07:30:42.990Z,22.20
2018-06-24T07:33:11.386Z,22.20
2018-06-24T07:35:39.528Z,22.20
2018-06-24T07:38:07.988Z,22.20
2018-06-24T07:40:36.156Z,22.20
2018-06-24T07:43:04.457Z,22.20
2018-06-24T07:45:32.627Z,22.20
2018-06-24T07:48:00.717Z,22.20
2018-06-24T07:50:28.760Z,22.20
2018-06-24T07:52:56.942Z,22.20
2018-06-24T07:55:25.216Z,22.20
2018-06-24T07:57:53.296Z,22.20
2018-06-24T08:00:21.387Z,22.20
2018-06-24T08:02:49.441Z,22.20
2018-06-24T08:05:17.659Z,22.20
2018-06-24T08:07:45.863Z,22.30
2018-06-24T08:12:41.900Z,22.40
2018-06-24T08:15:09.994Z,22.40
2018-06-24T08:17:38.056Z,22.50
2018-06-24T08:20:06.221Z,22.50
2018-06-24T08:22:34.413Z,22.50
2018-06-24T08:25:02.589Z,22.50
2018-06-24T08:27:30.796Z,22.50
2018-06-24T08:29:58.874Z,22.50
2018-06-24T08:32:26.949Z,22.50
2018-06-24T08:34:55.028Z,22.60
2018-06-24T08:37:23.110Z,22.60
2018-06-24T08:39:51.215Z,22.60
2018-06-24T08:42:19.397Z,22.60
2018-06-24T08:44:47.452Z,22.60
2018-06-24T08:49:43.459Z,22.60
2018-06-24T08:52:11.561Z,22.60
2018-06-24T08:54:39.718Z,22.60
2018-06-24T08:57:07.849Z,22.60
2018-06-24T08:59:35.993Z,22.60
2018-06-24T09:02:04.301Z,22.60
2018-06-24T09:04:32.606Z,22.60
2018-06-24T09:07:00.753Z,22.60
2018-06-24T09:09:28.809Z,22.60
2018-06-24T09:14:24.841Z,22.70
2018-06-24T09:16:52.896Z,22.70
2018-06-24T09:19:21.005Z,22.80
2018-06-24T09:21:49.120Z,22.80
2018-06-24T09:24:17.193Z,22.80
2018-06-24T09:29:13.641Z,22.80
2018-06-24T09:31:41.940Z,22.80
2018-06-24T09:34:10.110Z,22.90
2018-06-24T09:36:38.316Z,22.90
2018-06-24T09:39:09.227Z,22.90
2018-06-24T09:41:37.458Z,22.90
2018-06-24T09:44:05.959Z,22.90
2018-06-24T09:46:34.520Z,22.90
2018-06-24T09:49:02.667Z,22.90
2018-06-24T09:51:30.793Z,23.00
2018-06-24T09:53:58.958Z,23.00
2018-06-24T09:56:27.023Z,23.00
2018-06-24T09:58:55.101Z,23.00
2018-06-24T10:01:23.228Z,23.00
2018-06-24T10:03:51.397Z,23.00
2018-06-24T10:08:47.404Z,23.10
2018-06-24T10:11:15.518Z,23.10
2018-06-24T10:13:43.716Z,23.00
2018-06-24T10:16:11.828Z,23.00
2018-06-24T10:18:40.089Z,23.10
2018-06-24T10:21:08.275Z,23.10
2018-06-24T10:23:36.446Z,23.10
2018-06-24T10:28:32.654Z,23.10
2018-06-24T10:31:01.965Z,23.20
2018-06-24T10:33:30.133Z,23.20
2018-06-24T10:38:26.079Z,23.20
2018-06-24T10:40:54.160Z,23.20
2018-06-24T10:43:22.245Z,23.20
2018-06-24T10:48:18.284Z,23.20
2018-06-24T10:50:46.360Z,23.30
2018-06-24T10:53:14.586Z,23.30
2018-06-24T10:55:42.700Z,23.30
2018-06-24T10:58:10.936Z,23.30
2018-06-24T11:00:39.139Z,23.30
2018-06-24T11:03:07.287Z,23.30
2018-06-24T11:05:35.442Z,23.30
2018-06-24T11:10:31.779Z,23.40
2018-06-24T11:12:59.952Z,23.40
2018-06-24T11:15:28.040Z,23.40
2018-06-24T11:17:56.116Z,23.40
2018-06-24T11:20:24.220Z,23.40
2018-06-24T11:22:52.358Z,23.40
2018-06-24T11:25:20.443Z,23.40
2018-06-24T11:27:48.532Z,23.40
2018-06-24T11:30:16.624Z,23.40
2018-06-24T11:32:44.727Z,23.50
2018-06-24T11:35:12.829Z,23.50
2018-06-24T11:37:40.956Z,23.50
2018-06-24T11:40:09.132Z,23.50
2018-06-24T11:42:37.273Z,23.50
2018-06-24T11:45:05.679Z,23.50
2018-06-24T11:47:33.856Z,23.50
2018-06-24T11:50:02.338Z,23.50
2018-06-24T11:52:30.592Z,23.50
2018-06-24T11:54:58.690Z,23.50
2018-06-24T11:57:26.778Z,23.50
2018-06-24T11:59:54.948Z,23.60
2018-06-24T12:02:23.082Z,23.60
2018-06-24T12:04:51.209Z,23.60
2018-06-24T12:07:19.397Z,23.60
2018-06-24T12:09:47.571Z,23.60
2018-06-24T12:12:15.633Z,23.60
2018-06-24T12:14:43.733Z,23.60
2018-06-24T12:17:12.151Z,23.60
2018-06-24T12:19:40.427Z,23.60
2018-06-24T12:22:08.600Z,23.60
2018-06-24T12:24:36.740Z,23.60
2018-06-24T12:27:05.144Z,23.60
2018-06-24T12:29:33.351Z,23.70
2018-06-24T12:32:01.628Z,23.70
2018-06-24T12:34:29.730Z,23.70
2018-06-24T12:36:57.872Z,23.70
2018-06-24T12:39:25.980Z,23.70
2018-06-24T12:41:54.093Z,23.70
2018-06-24T12:44:22.295Z,23.70
2018-06-24T12:46:50.488Z,23.70
2018-06-24T12:49:18.649Z,23.70
2018-06-24T12:51:46.822Z,23.70
2018-06-24T12:54:14.920Z,23.70
2018-06-24T12:56:43.079Z,23.70
2018-06-24T12:59:11.388Z,23.70
2018-06-24T13:01:39.401Z,23.70
2018-06-24T13:04:07.693Z,23.70
2018-06-24T13:06:36.050Z,23.70
2018-06-24T13:09:07.297Z,23.70
2018-06-24T13:11:35.959Z,23.70
2018-06-24T13:14:04.808Z,23.70
2018-06-24T13:16:32.957Z,23.70
2018-06-24T13:19:01.124Z,23.70
2018-06-24T13:21:29.377Z,23.80
2018-06-24T13:23:57.556Z,23.80
2018-06-24T13:28:53.673Z,23.80
2018-06-24T13:31:21.825Z,23.90
2018-06-24T13:33:49.936Z,23.90
2018-06-24T13:36:18.057Z,23.90
2018-06-24T13:38:46.196Z,23.80
2018-06-24T13:41:14.569Z,23.90
2018-06-24T13:43:42.668Z,23.90
2018-06-24T13:48:38.954Z,23.90
2018-06-24T13:51:07.243Z,23.90
2018-06-24T13:53:35.452Z,23.90
2018-06-24T13:56:03.622Z,23.90
2018-06-24T13:58:31.721Z,23.90
2018-06-24T14:03:27.871Z,23.90
2018-06-24T14:05:55.957Z,23.90
2018-06-24T14:08:24.159Z,23.90
2018-06-24T14:10:52.236Z,23.90
2018-06-24T14:13:20.359Z,23.90
2018-06-24T14:15:48.431Z,23.90
2018-06-24T14:18:16.488Z,24.00
2018-06-24T14:20:44.556Z,23.90
2018-06-24T14:23:12.768Z,24.00
2018-06-24T14:25:40.751Z,24.00
2018-06-24T14:28:08.847Z,24.00
2018-06-24T14:30:36.917Z,24.00
2018-06-24T14:33:05.125Z,24.00
2018-06-24T14:35:33.197Z,24.00
2018-06-24T14:38:01.316Z,24.00
2018-06-24T14:40:29.477Z,24.00
2018-06-24T14:42:57.540Z,24.00
2018-06-24T14:45:25.621Z,24.00
2018-06-24T14:47:53.737Z,24.00
2018-06-24T14:50:21.930Z,24.00
2018-06-24T14:52:50.070Z,24.00
2018-06-24T14:55:18.297Z,24.10
2018-06-24T14:57:46.425Z,24.10
2018-06-24T15:00:14.509Z,24.10
2018-06-24T15:02:43.052Z,24.00
2018-06-24T15:05:12.185Z,24.10
2018-06-24T15:07:40.628Z,24.10
2018-06-24T15:10:08.973Z,24.00
2018-06-24T15:12:37.085Z,24.10
2018-06-24T15:15:05.149Z,24.10
2018-06-24T15:17:33.219Z,24.00
2018-06-24T15:20:01.408Z,24.00
2018-06-24T15:22:29.472Z,24.00
2018-06-24T15:24:57.541Z,24.00
2018-06-24T15:27:25.628Z,24.00
2018-06-24T15:29:53.713Z,23.90
2018-06-24T15:32:22.505Z,23.90
2018-06-24T15:34:50.626Z,24.00
2018-06-24T15:37:18.731Z,24.00
2018-06-24T15:42:15.232Z,23.90
2018-06-24T15:44:43.451Z,23.90
2018-06-24T15:47:11.521Z,23.90
2018-06-24T15:49:39.632Z,23.90
2018-06-24T15:52:07.717Z,23.90
2018-06-24T15:54:35.807Z,23.80
2018-06-24T15:57:03.885Z,23.80
2018-06-24T15:59:32.026Z,23.80
2018-06-24T16:02:00.334Z,23.80
2018-06-24T16:04:28.504Z,23.80
2018-06-24T16:06:56.560Z,23.70
2018-06-24T16:09:24.756Z,23.70
2018-06-24T16:11:52.818Z,23.70
2018-06-24T16:14:20.901Z,23.70
2018-06-24T16:16:49.053Z,23.70
2018-06-24T16:19:17.168Z,23.70
2018-06-24T16:21:45.613Z,23.70
2018-06-24T16:24:13.736Z,23.70
2018-06-24T16:26:41.829Z,23.70
2018-06-24T16:29:09.899Z,23.70
2018-06-24T16:31:37.960Z,23.70
2018-06-24T16:34:06.248Z,23.70
2018-06-24T16:36:34.296Z,23.70
2018-06-24T16:39:02.453Z,23.70
2018-06-24T16:41:30.572Z,23.70
2018-06-24T16:43:58.720Z,23.70
2018-06-24T16:46:26.768Z,23.70
2018-06-24T16:48:58.059Z,23.70
2018-06-24T16:51:26.260Z,23.70
2018-06-24T16:53:54.320Z,23.70
2018-06-24T16:56:22.571Z,23.70
2018-06-24T16:58:50.719Z,23.70
2018-06-24T17:01:18.928Z,23.70
2018-06-24T17:03:47.167Z,23.70
2018-06-24T17:06:15.181Z,23.70
2018-06-24T17:08:43.345Z,23.60
2018-06-24T17:11:11.434Z,23.60
2018-06-24T17:13:39.497Z,23.60
2018-06-24T17:16:07.540Z,23.60
2018-06-24T17:18:35.692Z,23.60
2018-06-24T17:23:31.716Z,23.60
2018-06-24T17:25:59.877Z,23.60
2018-06-24T17:28:28.100Z,23.60
2018-06-24T17:30:56.772Z,23.50
2018-06-24T17:33:24.940Z,23.50
2018-06-24T17:35:53.021Z,23.50
2018-06-24T17:38:21.249Z,23.50
2018-06-24T17:40:55.769Z,23.50
2018-06-24T17:43:23.832Z,23.50
2018-06-24T17:45:51.945Z,23.50
2018-06-24T17:48:20.116Z,23.50
2018-06-24T17:50:48.276Z,23.50
2018-06-24T17:53:16.399Z,23.50
2018-06-24T17:55:44.420Z,23.50
2018-06-24T17:58:12.478Z,23.40
2018-06-24T18:00:40.558Z,23.40
2018-06-24T18:03:08.618Z,23.40
2018-06-24T18:05:36.857Z,23.40
2018-06-24T18:08:05.478Z,23.40
2018-06-24T18:10:33.531Z,23.40
2018-06-24T18:13:01.616Z,23.40
2018-06-24T18:15:29.710Z,23.40
2018-06-24T18:17:57.792Z,23.40
2018-06-24T18:20:26.611Z,23.40
2018-06-24T18:22:54.789Z,23.40
2018-06-24T18:25:22.917Z,23.40
2018-06-24T18:27:51.185Z,23.40
2018-06-24T18:30:19.317Z,23.40
2018-06-24T18:32:48.271Z,23.40
2018-06-24T18:35:16.566Z,23.40
2018-06-24T18:37:44.743Z,23.40
2018-06-24T18:40:12.894Z,23.30
2018-06-24T18:42:41.087Z,23.30
2018-06-24T18:45:09.172Z,23.30
2018-06-24T18:47:37.304Z,23.30
2018-06-24T18:50:05.372Z,23.40
2018-06-24T18:52:33.628Z,23.30
2018-06-24T18:55:01.690Z,23.30
2018-06-24T18:57:29.916Z,23.30
2018-06-24T18:59:57.975Z,23.30
2018-06-24T19:02:26.128Z,23.30
2018-06-24T19:04:54.300Z,23.30
2018-06-24T19:07:22.465Z,23.30
2018-06-24T19:09:50.658Z,23.20
2018-06-24T19:12:18.773Z,23.20
2018-06-24T19:17:14.896Z,23.20
2018-06-24T19:19:42.984Z,23.20
2018-06-24T19:22:11.068Z,23.20
2018-06-24T19:24:39.162Z,23.20
2018-06-24T19:27:07.208Z,23.20
2018-06-24T19:29:35.348Z,23.20
2018-06-24T19:32:03.387Z,23.20
2018-06-24T19:34:32.538Z,23.20
2018-06-24T19:37:00.656Z,23.20
2018-06-24T19:39:28.758Z,23.20
2018-06-24T19:41:56.871Z,23.20
2018-06-24T19:44:25.082Z,23.20
2018-06-24T19:46:53.219Z,23.20
2018-06-24T19:49:21.388Z,23.20
2018-06-24T19:51:49.576Z,23.20
2018-06-24T19:54:18.632Z,23.20
2018-06-24T19:56:46.935Z,23.20
2018-06-24T19:59:14.939Z,23.20
2018-06-24T20:01:43.152Z,23.20
2018-06-24T20:04:11.426Z,23.20
2018-06-24T20:06:39.478Z,23.20
2018-06-24T20:09:08.951Z,23.20
2018-06-24T20:11:37.027Z,23.20
2018-06-24T20:19:00.716Z,23.20
2018-06-24T20:21:28.773Z,23.20
2018-06-24T20:23:56.836Z,23.20
2018-06-24T20:26:24.984Z,23.20
2018-06-24T20:28:53.353Z,23.20
2018-06-24T20:31:21.492Z,23.20
2018-06-24T20:33:49.584Z,23.20
2018-06-24T20:36:17.732Z,23.20
2018-06-24T20:38:45.884Z,23.20
2018-06-24T20:41:13.929Z,23.20
2018-06-24T20:43:42.040Z,23.20
2018-06-24T20:46:10.101Z,23.20
2018-06-24T20:48:38.407Z,23.20
2018-06-24T20:51:06.553Z,23.20
2018-06-24T20:53:34.615Z,23.20
2018-06-24T20:56:02.684Z,23.20
2018-06-24T20:58:30.741Z,23.20
2018-06-24T21:00:58.800Z,23.20
2018-06-24T21:03:26.863Z,23.20
2018-06-24T21:05:54.970Z,23.20
2018-06-24T21:08:23.030Z,23.20
2018-06-24T21:10:51.120Z,23.20
2018-06-24T21:13:19.236Z,23.20
2018-06-24T21:15:47.519Z,23.20
2018-06-24T21:18:15.656Z,23.20
2018-06-24T21:20:43.720Z,23.20
2018-06-24T21:23:11.801Z,23.20
2018-06-24T21:25:39.882Z,23.30
2018-06-24T21:28:07.980Z,23.30
2018-06-24T21:30:36.048Z,23.20
2018-06-24T21:33:04.206Z,23.30
2018-06-24T21:38:00.253Z,23.30
2018-06-24T21:40:28.313Z,23.20
2018-06-24T21:42:56.355Z,23.30
2018-06-24T21:45:24.501Z,23.30
2018-06-24T21:47:52.564Z,23.30
2018-06-24T21:50:20.680Z,23.30
2018-06-24T21:52:48.804Z,23.30
2018-06-24T21:55:16.926Z,23.30
2018-06-24T21:57:44.986Z,23.30
2018-06-24T22:00:13.081Z,23.30
2018-06-24T22:02:41.145Z,23.30
2018-06-24T22:05:09.208Z,23.30
2018-06-24T22:07:37.272Z,23.30
2018-06-24T22:10:05.655Z,23.30
2018-06-24T22:12:33.708Z,23.30
2018-06-24T22:15:01.777Z,23.30
2018-06-24T22:17:29.844Z,23.30
2018-06-24T22:19:57.910Z,23.30
2018-06-24T22:22:26.013Z,23.30
2018-06-24T22:24:54.131Z,23.30
2018-06-24T22:27:22.273Z,23.30
2018-06-24T22:29:50.388Z,23.30
2018-06-24T22:32:18.505Z,23.30
2018-06-24T22:34:46.629Z,23.30
2018-06-24T22:37:15.195Z,23.30
2018-06-24T22:39:43.269Z,23.30
2018-06-24T22:42:11.416Z,23.30
2018-06-24T22:44:39.551Z,23.30
2018-06-24T22:47:07.592Z,23.30
2018-06-24T22:49:35.672Z,23.30
2018-06-24T22:52:03.757Z,23.30
2018-06-24T22:54:32.456Z,23.30
2018-06-24T22:57:00.565Z,23.30
2018-06-24T22:59:40.216Z,23.30
2018-06-24T23:02:08.291Z,23.30
2018-06-24T23:04:36.369Z,23.30
2018-06-24T23:07:04.485Z,23.30
2018-06-24T23:09:32.621Z,23.30
2018-06-24T23:12:00.795Z,23.30
2018-06-24T23:14:28.848Z,23.30
2018-06-24T23:16:56.909Z,23.30
2018-06-24T23:19:25.004Z,23.30
2018-06-24T23:21:53.120Z,23.30
2018-06-24T23:24:21.233Z,23.30
2018-06-24T23:26:49.336Z,23.30
2018-06-24T23:29:17.434Z,23.30
2018-06-24T23:31:45.494Z,23.30
2018-06-24T23:34:13.628Z,23.30
2018-06-24T23:36:41.702Z,23.30
2018-06-24T23:39:10.379Z,23.30
2018-06-24T23:41:38.464Z,23.30
2018-06-24T23:44:06.566Z,23.30
2018-06-24T23:46:34.612Z,23.30
2018-06-24T23:49:02.706Z,23.30
2018-06-24T23:51:30.769Z,23.30
2018-06-24T23:53:59.001Z,23.30
2018-06-24T23:56:27.065Z,23.30
2018-06-24T23:58:55.160Z,23.30
